Time;durP1;ratioP1;P1;durP2;ratioP2;P2;SDS_P1;SDS_P2;PMS_P1;PMS_P2;Temp;Humidity;BMP_temperature;BMP_pressure;BME280_temperature;BME280_humidity;BME280_pressure;Samples;Min_cycle;Max_cycle;Signal;HPM_P1;HPM_P2
2022/06/06 00:01:40;;;;;;;9.23;7.30;;;15.70;99.90;;;;;;5064999;28;20233;-68
2022/06/06 00:04:07;;;;;;;11.00;7.23;;;15.70;99.90;;;;;;5051143;28;20276;-68
2022/06/06 00:06:34;;;;;;;10.17;7.83;;;15.60;99.90;;;;;;5051490;28;20300;-69
2022/06/06 00:09:01;;;;;;;9.93;6.93;;;15.60;99.90;;;;;;5051211;28;20313;-68
2022/06/06 00:11:28;;;;;;;13.27;7.73;;;15.60;99.90;;;;;;5051179;28;20205;-70
2022/06/06 00:13:55;;;;;;;12.57;7.63;;;15.60;99.90;;;;;;5051247;28;20205;-68
2022/06/06 00:16:24;;;;;;;12.20;8.70;;;15.50;99.90;;;;;;5051194;28;20225;-67
2022/06/06 00:18:51;;;;;;;12.63;8.47;;;15.50;99.90;;;;;;5051503;28;20278;-68
2022/06/06 00:21:18;;;;;;;14.00;8.83;;;15.40;99.90;;;;;;5051396;28;20636;-70
2022/06/06 00:23:44;;;;;;;10.53;7.97;;;15.40;99.90;;;;;;5070812;28;20712;-68
2022/06/06 00:26:14;;;;;;;10.43;8.30;;;15.40;99.90;;;;;;5070981;28;20243;-68
2022/06/06 00:28:44;;;;;;;12.47;7.60;;;15.40;99.90;;;;;;5090326;28;20204;-68
2022/06/06 00:36:42;;;;;;;11.67;8.63;;;15.40;99.90;;;;;;5091237;28;20210;-67
2022/06/06 00:39:12;;;;;;;12.73;9.27;;;15.30;99.90;;;;;;5076515;28;20382;-68
2022/06/06 00:41:39;;;;;;;16.60;9.43;;;15.30;99.90;;;;;;5071178;28;20731;-67
2022/06/06 00:44:09;;;;;;;10.50;8.57;;;15.30;99.90;;;;;;5070673;28;20294;-68
2022/06/06 00:46:40;;;;;;;13.27;9.27;;;15.30;99.90;;;;;;5071354;28;20654;-68
2022/06/06 00:49:15;;;;;;;12.63;9.10;;;15.30;99.90;;;;;;5073592;28;20303;-68
2022/06/06 00:51:43;;;;;;;13.53;9.40;;;15.30;99.90;;;;;;5086113;28;20295;-67
2022/06/06 00:54:10;;;;;;;12.57;9.30;;;15.30;99.90;;;;;;5055057;28;20727;-68
2022/06/06 00:56:40;;;;;;;14.97;10.77;;;15.30;99.90;;;;;;5054518;28;20205;-69
2022/06/06 00:59:12;;;;;;;13.13;9.67;;;15.30;99.90;;;;;;5053970;28;20287;-70
2022/06/06 01:01:41;;;;;;;11.80;9.00;;;15.30;99.90;;;;;;5053723;28;20364;-67
2022/06/06 01:04:11;;;;;;;12.80;9.63;;;15.20;99.90;;;;;;5054475;28;20243;-68
2022/06/06 01:06:41;;;;;;;17.40;10.33;;;15.20;99.90;;;;;;5053920;28;20201;-67
2022/06/06 01:09:09;;;;;;;13.63;9.57;;;15.20;99.90;;;;;;5053418;28;20205;-67
2022/06/06 01:11:41;;;;;;;14.37;9.60;;;15.20;99.90;;;;;;5053999;28;20213;-67
2022/06/06 01:14:11;;;;;;;13.57;9.73;;;15.20;99.90;;;;;;5053377;28;20186;-70
2022/06/06 01:16:48;;;;;;;15.10;9.70;;;15.30;99.90;;;;;;5054691;28;20209;-69
2022/06/06 01:19:44;;;;;;;11.30;9.57;;;15.20;99.90;;;;;;5054403;28;20193;-69
2022/06/06 01:22:38;;;;;;;12.90;9.43;;;15.20;99.90;;;;;;5046109;28;20316;-70
2022/06/06 01:25:31;;;;;;;15.60;10.17;;;15.20;99.90;;;;;;5043999;28;20210;-69
2022/06/06 01:28:01;;;;;;;14.73;9.47;;;15.20;99.90;;;;;;5057512;28;20283;-71
2022/06/06 01:30:33;;;;;;;13.47;8.93;;;15.10;99.90;;;;;;5072920;28;20196;-69
2022/06/06 01:33:02;;;;;;;15.53;9.17;;;15.20;99.90;;;;;;5072460;28;20280;-69
2022/06/06 01:35:32;;;;;;;11.70;8.77;;;15.20;99.90;;;;;;5054149;28;20212;-70
2022/06/06 01:37:59;;;;;;;12.23;8.73;;;15.20;99.90;;;;;;5053979;28;20280;-69
2022/06/06 01:40:31;;;;;;;13.07;9.23;;;15.20;99.90;;;;;;5053788;28;20292;-69
2022/06/06 01:43:01;;;;;;;11.23;8.03;;;15.20;99.90;;;;;;5053847;28;20209;-69
2022/06/06 01:45:35;;;;;;;14.37;8.80;;;15.20;99.90;;;;;;5053782;28;20211;-69
2022/06/06 01:48:06;;;;;;;12.97;9.17;;;15.20;99.90;;;;;;5053400;28;20236;-69
2022/06/06 01:50:36;;;;;;;14.70;8.47;;;15.20;99.90;;;;;;5053142;28;20281;-70
2022/06/06 01:53:06;;;;;;;11.87;8.43;;;15.30;99.90;;;;;;5053715;28;20876;-68
2022/06/06 01:55:35;;;;;;;12.20;8.07;;;15.30;99.90;;;;;;5068200;28;20197;-70
2022/06/06 01:58:08;;;;;;;12.20;8.13;;;15.30;99.90;;;;;;5072856;28;20763;-70
2022/06/06 02:00:38;;;;;;;12.37;8.00;;;15.30;99.90;;;;;;5072380;28;20246;-70
2022/06/06 02:03:06;;;;;;;10.93;8.27;;;15.40;99.90;;;;;;5072450;28;20237;-69
2022/06/06 02:05:33;;;;;;;12.53;8.40;;;15.40;99.90;;;;;;5073168;28;20304;-69
2022/06/06 02:08:00;;;;;;;11.13;8.30;;;15.50;99.90;;;;;;5072976;28;20617;-69
2022/06/06 02:10:27;;;;;;;13.93;8.37;;;15.50;99.90;;;;;;5053684;28;20231;-69
2022/06/06 02:12:54;;;;;;;13.10;8.53;;;15.60;99.90;;;;;;5052854;28;20288;-70
2022/06/06 02:15:23;;;;;;;15.63;9.67;;;15.70;99.90;;;;;;5053057;28;20209;-69
2022/06/06 02:17:53;;;;;;;14.43;9.50;;;15.80;99.90;;;;;;5052780;28;20205;-69
2022/06/06 02:20:23;;;;;;;14.57;9.53;;;15.80;99.90;;;;;;5065564;28;20205;-70
2022/06/06 02:22:50;;;;;;;12.53;8.77;;;15.80;99.90;;;;;;5072817;28;20758;-69
2022/06/06 02:25:18;;;;;;;12.97;8.93;;;15.80;99.90;;;;;;5073080;28;20291;-69
2022/06/06 02:27:45;;;;;;;14.27;8.97;;;15.90;99.90;;;;;;5066260;28;20332;-70
2022/06/06 02:30:15;;;;;;;11.23;8.57;;;16.00;99.90;;;;;;5072377;28;20287;-69
2022/06/06 02:32:42;;;;;;;12.87;8.37;;;16.00;99.90;;;;;;5072501;28;20398;-70
2022/06/06 02:35:14;;;;;;;11.07;8.37;;;16.10;99.90;;;;;;5072773;28;20687;-69
2022/06/06 02:37:41;;;;;;;12.70;8.87;;;16.10;99.90;;;;;;5066769;28;20190;-70
2022/06/06 02:40:11;;;;;;;11.10;8.40;;;16.10;99.90;;;;;;5052887;28;20206;-72
2022/06/06 02:42:38;;;;;;;12.43;8.83;;;16.20;99.90;;;;;;5052791;28;20267;-70
2022/06/06 02:45:07;;;;;;;12.60;8.53;;;16.20;99.90;;;;;;5052313;28;20692;-69
2022/06/06 02:47:34;;;;;;;12.13;9.13;;;16.20;99.90;;;;;;5055987;28;20201;-71
2022/06/06 02:50:01;;;;;;;11.70;8.67;;;16.20;99.90;;;;;;5072795;28;20258;-70
2022/06/06 02:52:29;;;;;;;11.23;8.57;;;16.10;99.90;;;;;;5072668;28;20227;-69
2022/06/06 02:54:56;;;;;;;12.37;9.07;;;16.10;99.90;;;;;;5072208;28;20204;-68
2022/06/06 02:57:23;;;;;;;12.60;8.50;;;16.10;99.90;;;;;;5070120;28;20284;-69
2022/06/06 02:59:52;;;;;;;16.47;9.53;;;16.20;99.90;;;;;;5051745;28;20707;-70
2022/06/06 03:02:19;;;;;;;13.97;10.10;;;16.20;99.90;;;;;;5051866;28;20384;-69
2022/06/06 03:04:46;;;;;;;14.00;9.53;;;16.20;99.90;;;;;;5052403;28;20212;-69
2022/06/06 03:07:24;;;;;;;10.47;8.57;;;16.30;99.90;;;;;;5053166;28;20280;-70
2022/06/06 03:10:03;;;;;;;10.97;8.73;;;16.30;99.90;;;;;;5072862;28;20622;-71
2022/06/06 03:12:40;;;;;;;12.20;8.97;;;16.30;99.90;;;;;;5072714;28;20285;-70
2022/06/06 03:15:19;;;;;;;11.37;8.67;;;16.30;99.90;;;;;;5071934;28;20190;-71
2022/06/06 03:20:47;;;;;;;10.33;8.30;;;16.30;99.90;;;;;;5052034;28;20236;-71
2022/06/06 03:23:40;;;;;;;12.20;8.80;;;16.30;99.90;;;;;;5052297;28;20254;-71
2022/06/06 03:26:15;;;;;;;10.97;7.77;;;16.30;99.90;;;;;;5042910;28;20201;-71
2022/06/06 03:28:57;;;;;;;14.80;8.93;;;16.20;99.90;;;;;;5052857;28;20285;-72
2022/06/06 03:31:33;;;;;;;11.77;9.17;;;16.30;99.90;;;;;;5052624;28;20193;-70
2022/06/06 03:34:09;;;;;;;12.57;9.13;;;16.30;99.90;;;;;;5052834;28;20277;-71
2022/06/06 03:36:46;;;;;;;14.23;10.10;;;16.30;99.90;;;;;;5053087;28;20280;-71
2022/06/06 03:39:21;;;;;;;14.73;9.60;;;16.30;99.90;;;;;;5052879;28;20189;-69
2022/06/06 03:42:01;;;;;;;14.67;9.63;;;16.20;99.90;;;;;;5052849;28;20280;-71
2022/06/06 03:44:40;;;;;;;13.57;9.57;;;16.30;99.90;;;;;;5052815;28;20267;-69
2022/06/06 03:47:16;;;;;;;15.97;9.13;;;16.30;99.90;;;;;;5052593;28;20256;-71
2022/06/06 03:49:51;;;;;;;11.93;9.20;;;16.40;99.90;;;;;;5052816;28;20273;-71
2022/06/06 03:52:27;;;;;;;11.77;8.60;;;16.50;99.90;;;;;;5052235;28;20281;-71
2022/06/06 03:55:03;;;;;;;11.63;8.67;;;16.60;99.90;;;;;;5052693;28;20239;-70
2022/06/06 03:57:33;;;;;;;11.87;9.00;;;16.60;99.90;;;;;;5052147;28;20696;-70
2022/06/06 04:00:06;;;;;;;13.73;9.43;;;16.70;99.90;;;;;;5052178;28;20651;-69
2022/06/06 04:02:36;;;;;;;15.93;9.23;;;16.80;99.90;;;;;;5050873;28;20610;-70
2022/06/06 04:05:07;;;;;;;13.93;9.07;;;16.90;99.90;;;;;;5051606;28;20305;-70
2022/06/06 04:07:34;;;;;;;11.53;9.30;;;17.00;99.90;;;;;;5050795;28;20191;-71
2022/06/06 04:10:02;;;;;;;11.73;8.90;;;17.10;99.90;;;;;;5050852;28;20209;-71
2022/06/06 04:12:51;;;;;;;10.20;8.13;;;17.10;99.90;;;;;;5051104;28;20215;-72
2022/06/06 04:15:29;;;;;;;12.00;8.17;;;17.30;99.90;;;;;;5049870;28;20239;-70
2022/06/06 04:18:11;;;;;;;12.97;9.23;;;17.40;99.90;;;;;;5050782;28;20300;-71
2022/06/06 04:20:43;;;;;;;11.23;8.13;;;17.40;99.90;;;;;;5051321;28;20194;-70
2022/06/06 04:23:28;;;;;;;10.93;8.50;;;17.50;99.90;;;;;;5051815;28;20415;-70
2022/06/06 04:26:10;;;;;;;9.63;7.93;;;17.60;99.90;;;;;;5053986;28;20226;-69
2022/06/06 04:28:52;;;;;;;13.73;9.20;;;17.70;99.90;;;;;;5055220;28;20191;-70
2022/06/06 04:31:29;;;;;;;11.43;7.37;;;17.80;99.90;;;;;;5058271;28;20641;-70
2022/06/06 04:34:04;;;;;;;10.23;7.73;;;17.80;99.90;;;;;;5074740;28;20188;-70
2022/06/06 04:36:35;;;;;;;14.10;8.50;;;17.90;99.90;;;;;;5075055;28;20197;-71
2022/06/06 04:39:07;;;;;;;14.10;8.33;;;18.00;99.90;;;;;;5075623;28;20282;-70
2022/06/06 04:41:42;;;;;;;12.23;7.30;;;18.10;99.90;;;;;;5069336;28;20276;-70
2022/06/06 04:44:16;;;;;;;14.10;8.17;;;18.10;99.90;;;;;;5055355;28;20375;-70
2022/06/06 04:46:54;;;;;;;16.57;7.67;;;18.20;99.90;;;;;;5057440;28;20621;-73
2022/06/06 04:49:22;;;;;;;10.10;7.00;;;18.30;99.90;;;;;;5055793;28;20257;-73
2022/06/06 04:51:50;;;;;;;12.10;7.67;;;18.40;99.90;;;;;;5055299;28;20294;-71
2022/06/06 04:54:21;;;;;;;9.87;6.63;;;18.50;99.90;;;;;;5055592;28;20202;-73
2022/06/06 04:56:50;;;;;;;12.17;8.60;;;18.50;99.90;;;;;;5070729;28;20288;-71
2022/06/06 04:59:18;;;;;;;12.17;7.70;;;18.60;99.90;;;;;;5075388;28;20590;-71
2022/06/06 05:01:47;;;;;;;10.60;7.00;;;18.60;99.90;;;;;;5075044;28;20298;-70
2022/06/06 05:04:14;;;;;;;10.87;6.40;;;18.70;99.90;;;;;;5076499;28;20306;-72
2022/06/06 05:07:14;;;;;;;9.77;6.40;;;18.80;99.90;;;;;;5074646;28;20235;-70
2022/06/06 05:09:55;;;;;;;11.97;8.17;;;19.00;99.90;;;;;;5069185;28;20283;-71
2022/06/06 05:12:43;;;;;;;10.10;6.20;;;19.00;99.90;;;;;;5054993;28;20233;-71
2022/06/06 05:15:24;;;;;;;10.23;5.47;;;19.10;99.90;;;;;;5056029;28;20249;-69
2022/06/06 05:18:14;;;;;;;7.60;4.90;;;19.20;99.90;;;;;;5068604;28;20661;-72
2022/06/06 05:21:08;;;;;;;8.13;5.23;;;19.20;99.90;;;;;;5054305;28;20196;-73
2022/06/06 05:23:51;;;;;;;10.80;4.80;;;19.40;99.90;;;;;;5055171;28;20595;-70
2022/06/06 05:26:37;;;;;;;6.73;5.20;;;19.50;99.90;;;;;;5054527;28;20194;-70
2022/06/06 05:29:18;;;;;;;7.10;4.77;;;19.60;99.90;;;;;;5073556;28;20210;-72
2022/06/06 05:32:13;;;;;;;6.57;4.10;;;19.70;99.90;;;;;;5072584;28;20199;-72
2022/06/06 05:34:46;;;;;;;5.30;3.87;;;19.80;99.90;;;;;;5054646;28;20197;-71
2022/06/06 05:37:28;;;;;;;6.90;4.30;;;19.90;99.90;;;;;;5052743;28;20189;-71
2022/06/06 05:40:19;;;;;;;6.13;4.10;;;20.00;99.90;;;;;;5054205;28;20639;-70
2022/06/06 05:43:22;;;;;;;8.03;4.27;;;20.00;99.90;;;;;;5053334;28;20202;-71
2022/06/06 05:46:01;;;;;;;5.77;3.93;;;20.10;99.90;;;;;;5054480;28;20186;-71
2022/06/06 05:48:42;;;;;;;7.97;3.53;;;20.20;99.90;;;;;;5053607;28;20283;-70
2022/06/06 05:51:23;;;;;;;5.63;3.30;;;20.20;99.90;;;;;;5053360;28;20278;-70
2022/06/06 05:54:10;;;;;;;7.23;3.57;;;20.30;99.90;;;;;;5053425;28;20681;-71
2022/06/06 05:56:56;;;;;;;5.40;3.80;;;20.40;99.90;;;;;;5053876;28;20614;-71
2022/06/06 05:59:52;;;;;;;6.83;3.33;;;20.50;99.90;;;;;;5053916;28;20339;-70
2022/06/06 06:02:40;;;;;;;8.23;3.63;;;20.60;99.90;;;;;;5052748;28;20324;-70
2022/06/06 06:05:16;;;;;;;6.37;3.30;;;20.70;99.90;;;;;;5069805;28;20209;-70
2022/06/06 06:07:57;;;;;;;4.03;3.10;;;20.70;99.90;;;;;;5073907;28;20713;-70
2022/06/06 06:10:34;;;;;;;5.57;3.50;;;20.70;99.90;;;;;;5071435;28;20265;-70
2022/06/06 06:13:21;;;;;;;10.77;3.10;;;20.80;99.90;;;;;;5073613;28;20188;-71
2022/06/06 06:15:52;;;;;;;5.53;3.20;;;20.90;99.90;;;;;;5053659;28;20291;-73
2022/06/06 06:18:23;;;;;;;5.30;3.40;;;21.00;99.90;;;;;;5053525;28;20659;-72
2022/06/06 06:20:54;;;;;;;4.07;3.10;;;21.00;99.90;;;;;;5053581;28;20221;-72
2022/06/06 06:23:27;;;;;;;2.73;2.30;;;21.10;99.90;;;;;;5053393;28;20225;-70
2022/06/06 06:25:55;;;;;;;4.67;2.90;;;21.20;99.90;;;;;;5053301;28;20189;-70
2022/06/06 06:28:22;;;;;;;4.50;2.90;;;21.20;99.90;;;;;;5052691;28;20264;-70
2022/06/06 06:31:05;;;;;;;6.70;2.87;;;21.20;99.90;;;;;;5053020;28;20294;-71
2022/06/06 06:33:48;;;;;;;4.60;2.60;;;21.20;99.90;;;;;;5054598;28;20267;-71
2022/06/06 06:36:28;;;;;;;4.70;2.40;;;21.30;99.90;;;;;;5073287;28;20200;-73
2022/06/06 06:39:09;;;;;;;4.27;2.67;;;21.40;99.90;;;;;;5073165;28;20296;-70
2022/06/06 06:41:48;;;;;;;3.53;2.43;;;21.50;99.90;;;;;;5072754;28;20231;-72
2022/06/06 06:44:19;;;;;;;4.53;2.80;;;21.50;99.90;;;;;;5065245;28;20213;-72
2022/06/06 06:46:54;;;;;;;3.20;2.47;;;21.50;99.90;;;;;;5053374;28;20193;-72
2022/06/06 06:49:34;;;;;;;3.73;2.37;;;21.60;99.90;;;;;;5052917;28;20272;-72
2022/06/06 06:52:14;;;;;;;3.93;2.60;;;21.60;99.90;;;;;;5054502;28;20207;-71
2022/06/06 06:54:59;;;;;;;4.27;2.30;;;21.70;99.90;;;;;;5072739;28;20714;-71
2022/06/06 06:57:39;;;;;;;3.87;2.40;;;21.70;99.90;;;;;;5070243;28;20661;-72
2022/06/06 07:00:12;;;;;;;2.87;2.10;;;21.80;99.90;;;;;;5052721;28;20196;-71
2022/06/06 07:08:43;;;;;;;10.27;2.60;;;22.00;99.90;;;;;;5073133;28;20230;-70
2022/06/06 07:11:46;;;;;;;6.73;2.57;;;21.90;99.90;;;;;;5073744;28;20193;-70
2022/06/06 07:14:25;;;;;;;4.90;2.27;;;22.00;99.90;;;;;;5047216;28;20236;-71
2022/06/06 07:16:59;;;;;;;3.30;2.33;;;22.00;99.90;;;;;;5053150;28;20247;-71
2022/06/06 07:19:33;;;;;;;2.87;2.20;;;22.00;99.90;;;;;;5065561;28;20192;-71
2022/06/06 07:22:03;;;;;;;5.33;2.13;;;22.10;99.90;;;;;;5072106;28;20190;-70
2022/06/06 07:24:31;;;;;;;7.57;2.40;;;22.10;99.90;;;;;;5061203;28;20226;-73
2022/06/06 07:27:01;;;;;;;7.77;2.33;;;22.10;99.90;;;;;;5067297;28;20253;-71
2022/06/06 07:29:29;;;;;;;4.70;2.13;;;22.10;99.90;;;;;;5052628;28;20289;-71
2022/06/06 07:32:27;;;;;;;3.80;2.27;;;22.10;99.90;;;;;;5052560;28;20810;-70
2022/06/06 07:35:02;;;;;;;4.17;2.10;;;22.20;99.70;;;;;;5051896;28;20297;-70
2022/06/06 07:37:51;;;;;;;3.03;2.23;;;22.30;99.90;;;;;;5062896;28;20212;-71
2022/06/06 07:40:30;;;;;;;4.13;2.50;;;22.30;98.50;;;;;;5072685;28;20552;-72
2022/06/06 07:43:22;;;;;;;9.30;2.80;;;22.30;98.90;;;;;;5068421;28;20642;-70
2022/06/06 07:45:51;;;;;;;3.27;2.37;;;22.30;98.50;;;;;;5063923;28;20240;-71
2022/06/06 07:48:37;;;;;;;4.63;2.30;;;22.20;97.50;;;;;;5071915;28;20702;-71
2022/06/06 07:51:09;;;;;;;4.77;2.50;;;22.30;97.90;;;;;;5063612;28;20185;-71
2022/06/06 07:53:44;;;;;;;4.40;2.20;;;22.20;97.90;;;;;;5055491;28;20194;-70
2022/06/06 07:56:19;;;;;;;2.97;2.40;;;22.30;98.20;;;;;;5071273;28;20638;-70
2022/06/06 07:58:56;;;;;;;6.63;3.00;;;22.30;97.90;;;;;;5050923;28;20204;-71
2022/06/06 08:01:48;;;;;;;3.53;2.10;;;22.40;98.00;;;;;;5050170;28;20204;-71
2022/06/06 08:04:26;;;;;;;3.17;2.20;;;22.50;97.60;;;;;;5052209;28;20210;-71
2022/06/06 08:07:05;;;;;;;2.80;2.50;;;22.60;97.10;;;;;;5051743;28;20549;-71
2022/06/06 08:09:53;;;;;;;3.30;2.60;;;22.60;97.80;;;;;;5051962;28;20257;-70
2022/06/06 08:12:43;;;;;;;4.27;3.10;;;22.70;97.90;;;;;;5044621;28;20208;-71
2022/06/06 08:15:21;;;;;;;4.30;2.67;;;22.80;96.80;;;;;;5051311;28;20277;-69
2022/06/06 08:18:13;;;;;;;3.77;2.60;;;22.80;97.40;;;;;;5051501;28;20225;-70
2022/06/06 08:20:47;;;;;;;4.17;2.43;;;22.90;97.70;;;;;;5051492;28;20295;-70
2022/06/06 08:23:14;;;;;;;4.80;2.40;;;23.00;97.50;;;;;;5051775;28;20225;-71
2022/06/06 08:25:44;;;;;;;5.50;2.87;;;23.10;96.90;;;;;;5051360;28;20678;-69
2022/06/06 08:28:12;;;;;;;4.90;2.30;;;23.10;96.30;;;;;;5051888;28;20212;-71
2022/06/06 08:30:44;;;;;;;5.73;2.70;;;23.10;96.10;;;;;;5052108;28;20660;-71
2022/06/06 08:33:11;;;;;;;4.63;2.50;;;23.00;95.90;;;;;;5051682;28;20282;-71
2022/06/06 08:35:47;;;;;;;2.73;2.53;;;22.90;96.00;;;;;;5051170;28;20228;-70
2022/06/06 08:38:27;;;;;;;3.00;2.13;;;22.90;96.20;;;;;;5051445;28;20190;-69
2022/06/06 08:41:17;;;;;;;3.67;2.40;;;22.90;96.20;;;;;;5050887;28;20194;-71
2022/06/06 08:44:07;;;;;;;2.83;2.27;;;22.90;95.60;;;;;;5051495;28;20300;-73
2022/06/06 08:47:01;;;;;;;2.47;2.27;;;22.90;95.90;;;;;;5051167;28;20254;-71
2022/06/06 08:52:49;;;;;;;4.17;2.30;;;22.70;95.60;;;;;;5051687;28;20213;-70
2022/06/06 08:55:42;;;;;;;3.30;2.80;;;22.70;95.90;;;;;;5053660;28;20190;-70
2022/06/06 08:58:42;;;;;;;4.03;2.50;;;22.60;95.60;;;;;;5067890;28;20190;-70
2022/06/06 09:01:18;;;;;;;2.87;2.20;;;22.70;95.90;;;;;;5054518;28;20208;-71
2022/06/06 09:04:11;;;;;;;2.40;2.17;;;22.70;95.00;;;;;;5050766;28;20626;-70
2022/06/06 09:07:20;;;;;;;5.63;2.50;;;22.70;95.10;;;;;;5056644;28;20333;-70
2022/06/06 09:10:19;;;;;;;4.93;2.47;;;22.70;94.60;;;;;;5066322;28;20201;-69
2022/06/06 09:13:19;;;;;;;2.80;2.30;;;22.60;94.40;;;;;;5053806;28;20603;-70
2022/06/06 09:16:16;;;;;;;2.57;2.13;;;22.60;94.50;;;;;;5068732;28;20204;-71
2022/06/06 09:19:12;;;;;;;2.30;1.90;;;22.60;93.80;;;;;;5071096;28;20194;-69
2022/06/06 09:22:01;;;;;;;2.77;2.20;;;22.70;92.50;;;;;;5073888;28;20197;-68
2022/06/06 09:25:19;;;;;;;3.33;2.00;;;22.70;92.90;;;;;;5065541;28;20277;-70
2022/06/06 09:28:29;;;;;;;2.80;2.07;;;22.80;92.50;;;;;;5054728;28;20290;-71
2022/06/06 09:31:49;;;;;;;2.10;1.87;;;22.90;92.60;;;;;;5054304;28;20315;-69
2022/06/06 09:34:48;;;;;;;3.70;2.10;;;23.00;92.20;;;;;;5055203;28;20280;-72
2022/06/06 09:37:33;;;;;;;3.93;2.53;;;23.20;92.90;;;;;;5054100;28;20276;-69
2022/06/06 09:40:19;;;;;;;2.70;2.30;;;23.30;92.80;;;;;;5053828;28;20192;-70
2022/06/06 09:43:04;;;;;;;2.97;2.27;;;23.30;92.70;;;;;;5053743;28;20228;-69
2022/06/06 09:45:34;;;;;;;3.77;2.20;;;23.40;93.70;;;;;;5054056;28;20305;-69
2022/06/06 09:48:29;;;;;;;5.23;2.17;;;23.50;94.00;;;;;;5055310;28;20215;-73
2022/06/06 09:51:33;;;;;;;4.27;2.40;;;23.50;92.70;;;;;;5054338;28;20666;-74
2022/06/06 10:00:40;;;;;;;2.67;2.10;;;23.40;92.40;;;;;;5046568;28;20241;-70
2022/06/06 10:03:33;;;;;;;2.93;2.50;;;23.60;92.40;;;;;;5052755;28;20667;-71
2022/06/06 10:06:32;;;;;;;2.87;2.27;;;23.60;93.00;;;;;;5044567;28;20235;-70
2022/06/06 10:09:37;;;;;;;3.17;2.47;;;23.70;93.00;;;;;;5053544;28;20204;-70
2022/06/06 10:12:46;;;;;;;5.17;2.80;;;23.90;92.60;;;;;;5053022;28;20291;-70
2022/06/06 10:15:35;;;;;;;3.47;2.37;;;23.90;92.30;;;;;;5048300;28;20198;-69
2022/06/06 10:18:31;;;;;;;6.07;2.80;;;23.90;92.50;;;;;;5053271;28;20246;-69
2022/06/06 10:21:24;;;;;;;7.50;2.70;;;23.90;92.90;;;;;;5053659;28;20279;-70
2022/06/06 10:24:10;;;;;;;2.80;2.20;;;23.80;93.00;;;;;;5060142;28;20282;-72
2022/06/06 10:26:50;;;;;;;5.23;2.50;;;23.80;92.80;;;;;;5073212;28;20257;-71
2022/06/06 10:33:06;;;;;;;3.80;3.23;;;23.60;92.10;;;;;;5071550;28;20533;-69
2022/06/06 10:35:45;;;;;;;5.13;3.63;;;23.60;91.10;;;;;;5069956;28;20283;-70
2022/06/06 10:38:49;;;;;;;3.40;2.43;;;23.60;91.50;;;;;;5053178;28;20363;-69
2022/06/06 10:41:41;;;;;;;2.63;2.07;;;23.80;91.20;;;;;;5040040;28;20314;-72
2022/06/06 10:44:30;;;;;;;3.57;1.90;;;23.90;91.00;;;;;;5053142;28;20202;-70
2022/06/06 10:47:13;;;;;;;3.53;2.13;;;24.00;90.80;;;;;;5053354;28;20231;-71
2022/06/06 10:49:48;;;;;;;3.43;2.00;;;24.10;89.30;;;;;;5052750;28;20283;-70
2022/06/06 10:52:51;;;;;;;2.87;2.10;;;24.10;88.60;;;;;;5053021;28;20562;-71
2022/06/06 10:55:50;;;;;;;3.20;2.17;;;24.20;88.20;;;;;;5052966;28;20187;-70
2022/06/06 10:58:54;;;;;;;2.30;1.93;;;24.20;88.00;;;;;;5052720;28;20279;-69
2022/06/06 11:02:13;;;;;;;4.17;2.20;;;24.20;88.50;;;;;;5053138;28;20198;-69
2022/06/06 11:05:15;;;;;;;2.83;2.17;;;24.30;88.00;;;;;;5053120;28;20260;-71
2022/06/06 11:08:21;;;;;;;2.33;1.87;;;24.30;86.50;;;;;;5052678;28;20301;-70
2022/06/06 11:11:24;;;;;;;2.70;2.00;;;24.40;87.50;;;;;;5052487;28;20280;-70
2022/06/06 11:14:01;;;;;;;3.67;2.20;;;24.50;87.60;;;;;;5049800;28;20244;-71
2022/06/06 11:17:00;;;;;;;3.27;2.13;;;24.70;87.30;;;;;;5052325;28;20274;-69
2022/06/06 11:20:12;;;;;;;3.93;2.30;;;24.70;86.40;;;;;;5051933;28;20293;-70
2022/06/06 11:22:42;;;;;;;3.30;2.00;;;24.60;85.70;;;;;;5051719;28;20275;-69
2022/06/06 11:25:13;;;;;;;2.40;1.90;;;24.50;85.70;;;;;;5051461;28;20230;-69
2022/06/06 11:28:19;;;;;;;2.63;1.90;;;24.40;86.00;;;;;;5052065;28;20249;-67
2022/06/06 11:31:16;;;;;;;2.60;2.00;;;24.50;84.80;;;;;;5059035;28;20564;-67
2022/06/06 11:34:18;;;;;;;3.30;2.30;;;24.40;83.90;;;;;;5052073;28;20637;-68
2022/06/06 11:37:32;;;;;;;2.93;2.00;;;24.40;84.10;;;;;;5068805;28;20194;-71
2022/06/06 11:40:17;;;;;;;3.53;2.10;;;24.40;84.70;;;;;;5070354;28;20639;-71
2022/06/06 11:43:12;;;;;;;2.50;2.00;;;24.40;86.70;;;;;;5051942;28;20294;-72
2022/06/06 11:46:07;;;;;;;2.93;1.97;;;24.40;86.20;;;;;;5051589;28;20236;-69
2022/06/06 11:48:55;;;;;;;3.50;2.33;;;24.40;83.20;;;;;;5053030;28;20235;-74
2022/06/06 11:51:55;;;;;;;4.43;1.93;;;24.30;83.10;;;;;;5066159;28;20281;-72
2022/06/06 11:54:59;;;;;;;2.80;2.37;;;24.50;84.10;;;;;;5058164;28;20246;-69
2022/06/06 11:57:36;;;;;;;5.23;2.33;;;24.60;84.00;;;;;;5038836;28;20313;-69
2022/06/06 12:00:28;;;;;;;27.67;3.00;;;24.60;84.20;;;;;;5051542;28;20193;-71
2022/06/06 12:03:27;;;;;;;8.70;2.70;;;24.70;84.70;;;;;;5051533;28;20655;-69
2022/06/06 12:06:26;;;;;;;9.43;2.53;;;24.60;85.30;;;;;;5051447;28;20201;-71
2022/06/06 12:09:05;;;;;;;11.63;2.60;;;24.50;84.50;;;;;;5051933;28;20594;-69
2022/06/06 12:12:07;;;;;;;5.30;2.23;;;24.40;84.60;;;;;;5051706;28;20559;-73
2022/06/06 12:14:56;;;;;;;2.00;1.80;;;24.30;85.00;;;;;;5051831;28;20634;-69
2022/06/06 12:17:38;;;;;;;2.40;2.10;;;24.40;84.90;;;;;;5031262;28;20610;-70
2022/06/06 12:20:42;;;;;;;3.93;2.17;;;24.50;85.80;;;;;;5051451;28;20285;-71
2022/06/06 12:23:19;;;;;;;3.57;2.00;;;24.50;83.00;;;;;;5050789;28;20296;-70
2022/06/06 12:26:14;;;;;;;2.47;2.10;;;24.50;83.60;;;;;;5050992;28;20234;-70
2022/06/06 12:29:29;;;;;;;6.33;2.33;;;24.50;82.30;;;;;;5051708;28;20187;-70
2022/06/06 12:32:17;;;;;;;4.30;2.20;;;24.50;84.90;;;;;;5051237;28;20208;-70
2022/06/06 12:34:49;;;;;;;5.73;2.83;;;24.50;84.80;;;;;;5051719;28;20240;-70
2022/06/06 12:37:22;;;;;;;3.97;2.20;;;24.60;85.60;;;;;;5051352;28;20192;-70
2022/06/06 12:40:13;;;;;;;3.97;2.30;;;24.60;84.90;;;;;;5051240;28;20210;-70
2022/06/06 12:42:50;;;;;;;4.80;2.27;;;24.60;84.10;;;;;;5051683;28;20234;-70
2022/06/06 12:45:50;;;;;;;2.70;2.10;;;24.60;82.30;;;;;;5051608;28;20192;-71
2022/06/06 12:48:40;;;;;;;6.07;2.50;;;24.50;83.30;;;;;;5054856;28;20193;-71
2022/06/06 12:51:18;;;;;;;3.67;2.10;;;24.60;83.80;;;;;;5034705;28;20399;-71
2022/06/06 12:54:09;;;;;;;3.70;2.13;;;24.70;83.00;;;;;;5054639;28;20595;-71
2022/06/06 12:56:55;;;;;;;8.13;2.37;;;24.70;83.20;;;;;;5055350;28;20554;-70
2022/06/06 12:59:46;;;;;;;5.80;2.00;;;24.80;83.20;;;;;;5055311;28;20205;-73
2022/06/06 13:02:34;;;;;;;3.90;2.10;;;24.70;81.50;;;;;;5054172;28;20267;-71
2022/06/06 13:05:17;;;;;;;5.70;2.43;;;24.70;81.30;;;;;;5054194;28;20201;-71
2022/06/06 13:08:07;;;;;;;4.77;2.20;;;24.70;80.00;;;;;;5057539;28;20273;-69
2022/06/06 13:10:45;;;;;;;2.80;1.80;;;24.70;78.70;;;;;;5067853;28;20606;-69
2022/06/06 13:13:35;;;;;;;2.40;2.10;;;24.80;77.40;;;;;;5054278;28;20255;-72
2022/06/06 13:16:11;;;;;;;2.00;1.80;;;24.70;78.40;;;;;;5051459;28;20379;-68
2022/06/06 13:18:59;;;;;;;16.77;2.83;;;24.70;79.20;;;;;;5055165;28;20612;-70
2022/06/06 13:21:40;;;;;;;4.27;2.20;;;24.80;80.30;;;;;;5061831;28;20354;-70
2022/06/06 13:24:31;;;;;;;5.13;2.00;;;24.70;82.40;;;;;;5054049;28;20537;-70
2022/06/06 13:27:18;;;;;;;15.50;3.40;;;24.70;82.90;;;;;;5054583;28;20835;-69
2022/06/06 13:29:47;;;;;;;5.83;2.30;;;24.60;82.30;;;;;;5054011;28;20197;-70
2022/06/06 13:32:28;;;;;;;5.20;2.30;;;24.60;82.30;;;;;;5054461;28;20237;-71
2022/06/06 13:35:08;;;;;;;3.47;2.47;;;24.60;83.50;;;;;;5054521;28;20239;-69
2022/06/06 13:37:46;;;;;;;6.90;2.60;;;24.60;82.60;;;;;;5054520;28;20184;-70
2022/06/06 13:40:33;;;;;;;7.20;2.90;;;24.50;82.80;;;;;;5054558;28;20287;-70
2022/06/06 13:43:27;;;;;;;5.70;2.50;;;24.50;83.00;;;;;;5054323;28;20308;-71
2022/06/06 13:46:13;;;;;;;5.47;2.50;;;24.50;83.70;;;;;;5054507;28;20328;-71
2022/06/06 13:49:20;;;;;;;10.47;2.10;;;24.60;83.30;;;;;;5053640;28;20196;-71
2022/06/06 13:52:00;;;;;;;2.13;1.90;;;24.70;82.50;;;;;;5053692;28;20205;-68
2022/06/06 13:54:31;;;;;;;3.03;2.10;;;24.70;78.80;;;;;;5054688;28;20192;-70
2022/06/06 13:57:16;;;;;;;3.67;2.20;;;24.80;79.40;;;;;;5058998;28;20295;-69
2022/06/06 14:00:14;;;;;;;2.37;2.00;;;24.90;79.30;;;;;;5056549;28;20266;-70
2022/06/06 14:03:12;;;;;;;3.30;1.80;;;24.70;77.60;;;;;;5053896;28;20343;-71
2022/06/06 14:05:57;;;;;;;2.57;2.00;;;24.70;78.10;;;;;;5049706;28;20216;-68
2022/06/06 14:08:24;;;;;;;2.70;1.70;;;24.70;76.30;;;;;;5053495;28;20198;-72
2022/06/06 14:11:06;;;;;;;3.50;2.07;;;24.60;75.60;;;;;;5063752;28;20242;-73
2022/06/06 14:13:48;;;;;;;9.90;2.07;;;24.60;76.70;;;;;;5074506;28;20188;-71
2022/06/06 14:16:19;;;;;;;3.33;1.77;;;24.60;76.70;;;;;;5073827;28;20653;-71
2022/06/06 14:18:51;;;;;;;2.70;1.90;;;24.60;76.60;;;;;;5068980;28;20679;-71
2022/06/06 14:21:31;;;;;;;22.07;2.97;;;24.50;76.50;;;;;;5071878;28;20199;-74